PWSweather.com
Personal Weather Stations
Station Observations
PHMDWX
Perry Hall, MD 21236

Perry Hall, MD 21236

Lat: 39.418318, Lon: -76.490039

Elevation: 305

Station Type: Davis Vantage Pro

Latest ConditionsUpdated 10:30:25 AM EDT Friday, Aug 28, 2015
Currently Today's Max Today's Min Today's Average
Temperature 70.3°F21.3°C 70.3°F21.3°C 56.0°F13.3°C 59.7°F15.4°C
Dew Point 59.6°F15.3°C 62.4°F16.9°C 55.4°F13.0°C 58.0°F14.4°C
Winds Calm Calm 0.3 mph WNW0.5 kmh WNW - 0.0 mph 0.0 kmh
Wind Gusts 2.0 mph3.2 kmh 2.0 mph3.2 kmh - -
Humidity 69% 99% 69% 94%
Pressure 30.19 in1022.4 mb 30.19 in1022.4 mb 30.11 in1019.6 mb -
Hour Temp Dew Point Humidity Winds Wind Gusts Pressure Precip Precip Rate Daily Precip Total
10:30 AM 70.3°F21.3°C 59.6°F15.3°C 69% Calm Calm 2.0 mph3.2 kmh 30.19 in1022.4 mb - 0.00 in0.0 mm 0.00 in0.0 mm
10:00 AM 68.1°F20.1°C 58.4°F14.7°C 71% Calm Calm -- 30.18 in1022.0 mb - 0.00 in0.0 mm 0.00 in0.0 mm
09:30 AM 65.6°F18.7°C 61.3°F16.3°C 86% 0.1 mph WNW0.2 kmh WNW -- 30.18 in1022.0 mb - 0.00 in0.0 mm 0.00 in0.0 mm
09:00 AM 63.0°F17.2°C 62.4°F16.9°C 98% 0.3 mph WNW0.5 kmh WNW 2.0 mph3.2 kmh 30.18 in1022.0 mb - 0.00 in0.0 mm 0.00 in0.0 mm
08:30 AM 60.9°F16.1°C 60.6°F15.9°C 99% Calm Calm -- 30.17 in1021.7 mb - 0.00 in0.0 mm 0.00 in0.0 mm
08:00 AM 59.0°F15.0°C 58.7°F14.8°C 99% Calm Calm -- 30.16 in1021.3 mb - 0.00 in0.0 mm 0.00 in0.0 mm
07:30 AM 56.5°F13.6°C 56.2°F13.4°C 99% Calm Calm -- 30.16 in1021.3 mb - 0.00 in0.0 mm 0.00 in0.0 mm
07:00 AM 56.0°F13.3°C 55.4°F13.0°C 98% Calm Calm -- 30.14 in1020.7 mb - 0.00 in0.0 mm 0.00 in0.0 mm
06:30 AM 56.2°F13.4°C 55.6°F13.1°C 98% Calm Calm -- 30.13 in1020.3 mb - 0.00 in0.0 mm 0.00 in0.0 mm
06:00 AM 56.2°F13.4°C 55.6°F13.1°C 98% Calm Calm -- 30.12 in1020.0 mb - 0.00 in0.0 mm 0.00 in0.0 mm
05:30 AM 56.6°F13.7°C 56.0°F13.3°C 98% Calm Calm -- 30.12 in1020.0 mb - 0.00 in0.0 mm 0.00 in0.0 mm
05:00 AM 57.0°F13.9°C 56.4°F13.6°C 98% Calm Calm -- 30.11 in1019.6 mb - 0.00 in0.0 mm 0.00 in0.0 mm
04:30 AM 56.6°F13.7°C 55.8°F13.2°C 97% Calm Calm -- 30.11 in1019.6 mb - 0.00 in0.0 mm 0.00 in0.0 mm
04:00 AM 57.0°F13.9°C 56.2°F13.4°C 97% Calm Calm -- 30.11 in1019.6 mb - 0.00 in0.0 mm 0.00 in0.0 mm
03:30 AM 57.8°F14.3°C 57.0°F13.9°C 97% Calm Calm -- 30.11 in1019.6 mb - 0.00 in0.0 mm 0.00 in0.0 mm
03:00 AM 58.7°F14.8°C 57.8°F14.3°C 97% Calm Calm -- 30.11 in1019.6 mb - 0.00 in0.0 mm 0.00 in0.0 mm
02:30 AM 58.9°F14.9°C 58.1°F14.5°C 97% Calm Calm 1.0 mph1.6 kmh 30.12 in1020.0 mb - 0.00 in0.0 mm 0.00 in0.0 mm
02:00 AM 59.6°F15.3°C 58.7°F14.8°C 97% Calm Calm -- 30.12 in1020.0 mb - 0.00 in0.0 mm 0.00 in0.0 mm
01:30 AM 59.8°F15.4°C 58.9°F14.9°C 97% Calm Calm -- 30.12 in1020.0 mb - 0.00 in0.0 mm 0.00 in0.0 mm
01:00 AM 59.9°F15.5°C 58.8°F14.9°C 96% 0.1 mph WNW0.2 kmh WNW 1.0 mph1.6 kmh 30.12 in1020.0 mb - 0.00 in0.0 mm 0.00 in0.0 mm
12:30 AM 60.1°F15.6°C 59.0°F15.0°C 96% Calm Calm -- 30.12 in1020.0 mb - 0.00 in0.0 mm 0.00 in0.0 mm
12:00 AM 60.5°F15.8°C 59.1°F15.1°C 95% Calm Calm -- 30.12 in1020.0 mb - 0.00 in0.0 mm 0.00 in0.0 mm